EmailTwitter


Observations de surface / États-Unis / KJFK (74486)

Régions: Québec | Canada | États-Unis | Europe | France | UK | Ailleurs
Station
Affichage
Infos & localisation pour KJFK (74486) | Aide pour décoder les METARs

Observations prises le 2018-11-16 à 02H51 UTC à NEW YORK/JF KENN, NY (KJFK)

Etat du ciel: couvert.

Obstacle(s) à la visibilité: faible pluie.

Température: 2.2 Celsius

Point de rosée: 1.7 Celsius

Humidité relative: 96%

Facteur vent: -5.

Facteur vent (rafales): -5.

Vents: Nord-est à 43 km/h ou 23 noeuds.

Rafale du vent: 56 km/h ou 30 noeuds.

Pression au niveau moyen de la mer: 101.48 kilopascals.

Calage altimétrique: 101.49 kilopascals ou 29.97 pouces de mercure.

Visibilité horizontale: 7.00 milles terrestres ou 11.20 kilomètres.

Hauteur du plafond: 274 mètres ( 900 pieds ).

Observation METAR:

KJFK 160251Z 06023G30KT 7SM -RA BKN009 BKN022 OVC045 02/02 A2997 RMK AO2 PK WND

04034/0202 SLP148 BKN009 V SCT P0009 60023 T00220017 56081 $=